createdAt,value
2018-08-31T00:00:41.686Z,10.75
2018-08-31T00:05:40.326Z,9.95
2018-08-31T00:09:18.810Z,10.23
2018-08-31T00:12:37.194Z,9.90
2018-08-31T00:15:49.145Z,11.93
2018-08-31T00:19:00.393Z,10.40
2018-08-31T00:22:11.577Z,10.45
2018-08-31T00:26:10.081Z,13.20
2018-08-31T00:29:50.017Z,11.83
2018-08-31T00:35:14.596Z,10.82
2018-08-31T00:38:42.345Z,9.40
2018-08-31T00:44:19.170Z,11.45
2018-08-31T00:47:30.376Z,11.60
2018-08-31T00:50:42.541Z,12.70
2018-08-31T00:53:54.520Z,8.80
2018-08-31T00:57:05.681Z,9.53
2018-08-31T01:00:17.490Z,11.50
2018-08-31T01:03:28.963Z,9.53
2018-08-31T01:06:40.598Z,10.32
2018-08-31T01:09:52.498Z,12.50
2018-08-31T01:13:03.863Z,11.88
2018-08-31T01:16:15.030Z,10.08
2018-08-31T01:19:26.988Z,13.70
2018-08-31T01:22:38.196Z,9.03
2018-08-31T01:25:50.152Z,8.75
2018-08-31T01:29:01.205Z,12.23
2018-08-31T01:32:13.443Z,12.47
2018-08-31T01:35:25.377Z,12.73
2018-08-31T01:38:36.957Z,10.40
2018-08-31T01:41:48.949Z,10.45
2018-08-31T01:45:00.355Z,9.35
2018-08-31T01:48:12.259Z,11.88
2018-08-31T01:51:24.185Z,10.88
2018-08-31T01:54:35.336Z,15.23
2018-08-31T01:57:46.612Z,9.58
2018-08-31T02:00:57.947Z,10.43
2018-08-31T02:04:09.406Z,9.63
2018-08-31T02:07:21.413Z,13.32
2018-08-31T02:10:33.209Z,11.22
2018-08-31T02:13:44.699Z,9.78
2018-08-31T02:16:55.875Z,12.60
2018-08-31T02:20:07.627Z,10.72
2018-08-31T02:23:19.534Z,10.50
2018-08-31T02:26:30.956Z,11.48
2018-08-31T02:29:41.994Z,11.95
2018-08-31T02:32:53.157Z,11.03
2018-08-31T02:36:04.795Z,11.30
2018-08-31T02:39:16.093Z,9.65
2018-08-31T02:42:28.103Z,13.65
2018-08-31T02:45:40.305Z,12.30
2018-08-31T02:48:53.044Z,10.98
2018-08-31T02:52:04.905Z,8.13
2018-08-31T02:55:16.027Z,10.78
2018-08-31T02:58:28.036Z,10.98
2018-08-31T03:01:39.189Z,9.63
2018-08-31T03:04:51.129Z,8.90
2018-08-31T03:08:02.539Z,12.10
2018-08-31T03:11:14.324Z,10.78
2018-08-31T03:14:25.841Z,10.13
2018-08-31T03:17:37.131Z,8.90
2018-08-31T03:20:48.195Z,8.35
2018-08-31T03:23:59.496Z,9.75
2018-08-31T03:27:11.105Z,10.50
2018-08-31T03:30:22.195Z,9.70
2018-08-31T03:33:33.504Z,10.18
2018-08-31T03:36:44.766Z,13.30
2018-08-31T03:39:56.101Z,9.15
2018-08-31T03:43:08.169Z,10.03
2018-08-31T03:46:20.500Z,9.58
2018-08-31T03:49:31.848Z,7.50
2018-08-31T03:52:42.987Z,10.72
2018-08-31T03:55:54.204Z,8.85
2018-08-31T03:59:06.279Z,8.20
2018-08-31T04:02:18.192Z,11.85
2018-08-31T04:05:29.237Z,8.93
2018-08-31T04:08:41.280Z,8.73
2018-08-31T04:11:52.621Z,8.80
2018-08-31T04:15:04.262Z,7.22
2018-08-31T04:18:15.896Z,8.40
2018-08-31T04:21:26.928Z,6.37
2018-08-31T04:24:38.073Z,9.55
2018-08-31T04:27:49.193Z,6.28
2018-08-31T04:31:01.067Z,8.20
2018-08-31T04:34:12.884Z,6.40
2018-08-31T04:37:24.804Z,7.92
2018-08-31T04:40:35.984Z,9.10
2018-08-31T04:43:47.557Z,9.28
2018-08-31T04:46:59.199Z,8.28
2018-08-31T04:50:10.942Z,10.50
2018-08-31T04:53:21.937Z,7.60
2018-08-31T04:56:33.889Z,6.78
2018-08-31T04:59:45.800Z,7.67
2018-08-31T05:02:57.790Z,9.18
2018-08-31T05:06:08.905Z,10.58
2018-08-31T05:09:20.281Z,9.10
2018-08-31T05:12:32.077Z,7.22
2018-08-31T05:15:43.096Z,8.40
2018-08-31T05:18:54.221Z,7.15
2018-08-31T05:22:06.198Z,10.38
2018-08-31T05:25:17.909Z,10.90
2018-08-31T05:28:28.963Z,9.50
2018-08-31T05:31:40.189Z,7.08
2018-08-31T05:34:51.975Z,7.53
2018-08-31T05:38:03.430Z,7.03
2018-08-31T05:41:14.560Z,6.80
2018-08-31T05:44:26.507Z,6.40
2018-08-31T05:47:38.454Z,8.15
2018-08-31T05:50:49.464Z,6.90
2018-08-31T05:54:00.448Z,6.87
2018-08-31T05:57:12.415Z,5.55
2018-08-31T06:00:24.257Z,5.90
2018-08-31T06:03:35.530Z,6.05
2018-08-31T06:06:46.874Z,5.72
2018-08-31T06:09:58.424Z,5.50
2018-08-31T06:13:10.267Z,4.83
2018-08-31T06:16:21.307Z,5.83
2018-08-31T06:19:33.252Z,5.67
2018-08-31T06:22:44.629Z,5.00
2018-08-31T06:25:55.761Z,4.67
2018-08-31T06:29:07.562Z,3.65
2018-08-31T06:32:19.601Z,5.08
2018-08-31T06:35:30.999Z,4.55
2018-08-31T06:38:42.281Z,5.65
2018-08-31T06:41:53.574Z,5.25
2018-08-31T06:45:04.720Z,4.40
2018-08-31T06:48:16.452Z,5.40
2018-08-31T06:51:27.998Z,4.05
2018-08-31T06:54:39.862Z,3.27
2018-08-31T06:57:50.922Z,3.20
2018-08-31T07:01:02.188Z,2.98
2018-08-31T07:04:14.129Z,5.53
2018-08-31T07:07:26.062Z,4.00
2018-08-31T07:10:38.207Z,4.47
2018-08-31T07:13:50.059Z,4.40
2018-08-31T07:17:01.939Z,3.58
2018-08-31T07:20:12.968Z,2.90
2018-08-31T07:23:24.855Z,4.25
2018-08-31T07:26:36.169Z,2.55
2018-08-31T07:29:47.206Z,4.47
2018-08-31T07:32:58.606Z,3.90
2018-08-31T07:36:10.133Z,3.95
2018-08-31T07:39:22.010Z,3.10
2018-08-31T07:42:33.860Z,2.65
2018-08-31T07:45:47.654Z,3.58
2018-08-31T07:48:59.294Z,3.60
2018-08-31T07:52:10.862Z,3.90
2018-08-31T07:55:22.469Z,3.70
2018-08-31T07:58:34.593Z,3.50
2018-08-31T08:01:45.953Z,3.80
2018-08-31T08:04:57.323Z,3.15
2018-08-31T08:08:08.954Z,3.00
2018-08-31T08:11:20.671Z,2.70
2018-08-31T08:14:32.124Z,2.85
2018-08-31T08:17:43.801Z,2.85
2018-08-31T08:20:55.623Z,2.98
2018-08-31T08:24:08.091Z,2.75
2018-08-31T08:27:19.652Z,3.08
2018-08-31T08:30:30.822Z,5.33
2018-08-31T08:33:42.639Z,4.65
2018-08-31T08:36:53.821Z,5.65
2018-08-31T08:40:05.345Z,4.17
2018-08-31T08:43:16.452Z,2.77
2018-08-31T08:46:28.415Z,4.45
2018-08-31T08:49:39.705Z,4.00
2018-08-31T08:52:50.681Z,6.75
2018-08-31T08:56:02.382Z,4.45
2018-08-31T08:59:13.857Z,4.85
2018-08-31T09:02:25.029Z,4.60
2018-08-31T09:05:36.951Z,4.37
2018-08-31T09:08:48.413Z,2.95
2018-08-31T09:12:00.130Z,4.15
2018-08-31T09:15:12.021Z,3.62
2018-08-31T09:18:28.160Z,5.30
2018-08-31T09:21:39.344Z,3.22
2018-08-31T09:24:50.453Z,5.75
2018-08-31T09:28:01.777Z,3.72
2018-08-31T09:31:15.060Z,3.55
2018-08-31T09:34:26.290Z,4.05
2018-08-31T09:37:37.447Z,3.47
2018-08-31T09:40:49.119Z,4.78
2018-08-31T09:44:01.085Z,4.15
2018-08-31T09:47:13.172Z,3.60
2018-08-31T09:50:24.968Z,2.95
2018-08-31T09:53:36.010Z,4.53
2018-08-31T09:56:48.556Z,3.85
2018-08-31T09:59:59.741Z,2.42
2018-08-31T10:03:28.822Z,4.10
2018-08-31T10:06:40.208Z,3.33
2018-08-31T10:09:51.239Z,3.77
2018-08-31T10:13:02.904Z,3.80
2018-08-31T10:16:14.388Z,3.22
2018-08-31T10:19:25.836Z,2.77
2018-08-31T10:22:37.137Z,4.87
2018-08-31T10:25:48.515Z,3.55
2018-08-31T10:28:59.734Z,3.25
2018-08-31T10:32:11.548Z,2.75
2018-08-31T10:35:23.374Z,3.85
2018-08-31T10:38:34.876Z,2.75
2018-08-31T10:41:46.791Z,2.90
2018-08-31T10:44:57.971Z,4.78
2018-08-31T10:48:32.192Z,3.00
2018-08-31T10:51:44.253Z,2.10
2018-08-31T10:54:55.970Z,2.72
2018-08-31T10:58:07.552Z,2.83
2018-08-31T11:01:19.424Z,3.33
2018-08-31T11:04:31.070Z,3.58
2018-08-31T11:07:42.170Z,4.30
2018-08-31T11:10:54.189Z,3.87
2018-08-31T11:14:06.813Z,3.95
2018-08-31T11:17:18.145Z,3.83
2018-08-31T11:20:29.948Z,3.67
2018-08-31T11:23:42.046Z,3.70
2018-08-31T11:26:53.881Z,4.05
2018-08-31T11:30:05.235Z,4.05
2018-08-31T11:33:16.330Z,3.60
2018-08-31T11:36:28.051Z,4.30
2018-08-31T11:39:40.143Z,4.47
2018-08-31T11:42:51.326Z,3.80
2018-08-31T11:46:03.369Z,3.90
2018-08-31T11:49:15.206Z,4.58
2018-08-31T11:52:26.516Z,4.12
2018-08-31T11:55:38.037Z,4.45
2018-08-31T11:58:49.571Z,5.30
2018-08-31T12:02:01.611Z,3.83
2018-08-31T12:05:13.612Z,4.17
2018-08-31T12:08:24.830Z,3.98
2018-08-31T12:11:36.210Z,4.42
2018-08-31T12:14:47.718Z,4.65
2018-08-31T12:17:59.261Z,3.80
2018-08-31T12:21:12.298Z,4.22
2018-08-31T12:24:24.061Z,3.60
2018-08-31T12:27:35.085Z,4.47
2018-08-31T12:30:46.166Z,5.10
2018-08-31T12:33:57.285Z,3.90
2018-08-31T12:37:09.144Z,5.47
2018-08-31T12:40:20.497Z,4.65
2018-08-31T12:43:32.205Z,5.72
2018-08-31T12:46:44.268Z,4.45
2018-08-31T12:49:56.111Z,5.42
2018-08-31T12:53:07.596Z,5.45
2018-08-31T12:56:18.675Z,4.40
2018-08-31T12:59:31.217Z,5.03
2018-08-31T13:02:43.177Z,5.90
2018-08-31T13:05:56.444Z,5.08
2018-08-31T13:09:09.010Z,4.28
2018-08-31T13:12:20.135Z,4.75
2018-08-31T13:15:32.372Z,5.78
2018-08-31T13:18:43.442Z,4.33
2018-08-31T13:21:54.498Z,5.03
2018-08-31T13:25:05.763Z,5.78
2018-08-31T13:28:17.661Z,5.47
2018-08-31T13:31:29.609Z,5.08
2018-08-31T13:34:41.845Z,4.70
2018-08-31T13:37:53.827Z,6.28
2018-08-31T13:41:05.036Z,6.08
2018-08-31T13:44:16.203Z,6.05
2018-08-31T13:47:27.951Z,5.95
2018-08-31T13:50:39.091Z,6.60
2018-08-31T13:53:51.682Z,5.75
2018-08-31T13:57:03.678Z,5.33
2018-08-31T14:00:15.521Z,6.30
2018-08-31T14:03:27.197Z,7.33
2018-08-31T14:06:38.970Z,6.40
2018-08-31T14:09:50.246Z,9.23
2018-08-31T14:13:02.167Z,7.05
2018-08-31T14:16:13.618Z,8.28
2018-08-31T14:19:25.616Z,8.98
2018-08-31T14:22:37.537Z,9.60
2018-08-31T14:25:49.355Z,8.35
2018-08-31T14:29:00.983Z,7.65
2018-08-31T14:32:13.093Z,7.60
2018-08-31T14:35:24.967Z,7.97
2018-08-31T14:38:36.758Z,8.25
2018-08-31T14:41:48.479Z,8.83
2018-08-31T14:44:59.884Z,7.67
2018-08-31T14:48:11.696Z,7.10
2018-08-31T14:51:22.849Z,8.95
2018-08-31T14:54:34.258Z,7.12
2018-08-31T14:57:46.139Z,6.92
2018-08-31T15:00:57.330Z,6.25
2018-08-31T15:04:09.243Z,8.10
2018-08-31T15:07:20.495Z,7.17
2018-08-31T15:10:31.698Z,6.50
2018-08-31T15:13:42.937Z,7.35
2018-08-31T15:16:54.620Z,5.62
2018-08-31T15:20:06.325Z,8.80
2018-08-31T15:23:18.269Z,6.05
2018-08-31T15:26:30.277Z,6.83
2018-08-31T15:29:41.919Z,7.28
2018-08-31T15:32:53.893Z,8.03
2018-08-31T15:36:06.136Z,4.80
2018-08-31T15:39:18.039Z,6.30
2018-08-31T15:42:30.183Z,6.62
2018-08-31T15:45:41.961Z,6.20
2018-08-31T15:48:52.959Z,7.55
2018-08-31T15:52:04.396Z,6.72
2018-08-31T15:55:15.415Z,6.83
2018-08-31T15:58:26.665Z,5.42
2018-08-31T16:01:37.719Z,4.50
2018-08-31T16:04:50.249Z,4.35
2018-08-31T16:08:01.935Z,5.75
2018-08-31T16:11:13.138Z,4.15
2018-08-31T16:14:24.979Z,4.35
2018-08-31T16:17:36.341Z,7.05
2018-08-31T16:20:48.200Z,4.17
2018-08-31T16:23:59.487Z,5.55
2018-08-31T16:27:11.450Z,4.30
2018-08-31T16:30:23.127Z,5.33
2018-08-31T16:33:34.390Z,5.78
2018-08-31T16:36:46.529Z,7.40
2018-08-31T16:39:58.453Z,5.53
2018-08-31T16:43:10.328Z,5.30
2018-08-31T16:46:22.363Z,5.17
2018-08-31T16:49:34.540Z,6.70
2018-08-31T16:52:46.245Z,5.17
2018-08-31T16:55:57.812Z,5.35
2018-08-31T16:59:09.558Z,4.80
2018-08-31T17:02:20.630Z,4.80
2018-08-31T17:05:32.589Z,4.80
2018-08-31T17:08:44.650Z,5.58
2018-08-31T17:11:56.704Z,5.30
2018-08-31T17:15:08.520Z,6.95
2018-08-31T17:18:21.139Z,4.83
2018-08-31T17:21:32.723Z,4.85
2018-08-31T17:24:44.003Z,5.33
2018-08-31T17:28:01.206Z,5.40
2018-08-31T17:31:17.685Z,6.37
2018-08-31T17:35:36.828Z,5.00
2018-08-31T17:38:48.773Z,5.72
2018-08-31T17:41:59.856Z,5.97
2018-08-31T17:45:13.084Z,4.60
2018-08-31T17:48:24.703Z,5.33
2018-08-31T17:51:36.955Z,5.50
2018-08-31T17:54:48.792Z,4.60
2018-08-31T17:58:01.433Z,5.15
2018-08-31T18:01:13.176Z,5.20
2018-08-31T18:04:24.349Z,4.15
2018-08-31T18:07:36.111Z,4.58
2018-08-31T18:10:48.042Z,5.15
2018-08-31T18:13:59.323Z,4.58
2018-08-31T18:17:11.312Z,7.50
2018-08-31T18:20:22.708Z,4.33
2018-08-31T18:23:34.695Z,4.83
2018-08-31T18:26:46.368Z,5.83
2018-08-31T18:29:58.044Z,5.75
2018-08-31T18:33:10.230Z,5.80
2018-08-31T18:36:21.962Z,4.87
2018-08-31T18:39:33.024Z,5.22
2018-08-31T18:42:44.105Z,5.28
2018-08-31T18:45:55.225Z,5.20
2018-08-31T18:49:07.776Z,6.12
2018-08-31T18:52:19.778Z,7.05
2018-08-31T18:55:32.128Z,4.97
2018-08-31T18:58:43.326Z,5.28
2018-08-31T19:01:55.212Z,7.05
2018-08-31T19:05:07.205Z,6.33
2018-08-31T19:08:18.243Z,8.45
2018-08-31T19:11:29.605Z,5.40
2018-08-31T19:14:41.460Z,6.95
2018-08-31T19:17:57.770Z,6.70
2018-08-31T19:21:09.730Z,7.87
2018-08-31T19:24:20.968Z,6.78
2018-08-31T19:27:33.126Z,5.85
2018-08-31T19:30:44.257Z,7.75
2018-08-31T19:33:56.280Z,6.70
2018-08-31T19:37:07.813Z,7.45
2018-08-31T19:40:19.584Z,6.67
2018-08-31T19:43:30.841Z,6.75
2018-08-31T19:46:42.539Z,7.03
2018-08-31T19:49:55.096Z,5.87
2018-08-31T19:53:07.293Z,5.97
2018-08-31T19:56:18.796Z,6.67
2018-08-31T19:59:29.910Z,5.58
2018-08-31T20:02:41.201Z,5.25
2018-08-31T20:05:52.577Z,6.00
2018-08-31T20:09:04.578Z,7.55
2018-08-31T20:12:16.044Z,7.55
2018-08-31T20:15:27.957Z,5.78
2018-08-31T20:18:39.863Z,6.62
2018-08-31T20:21:51.288Z,8.18
2018-08-31T20:25:03.212Z,6.45
2018-08-31T20:28:15.161Z,8.35
2018-08-31T20:31:26.945Z,7.03
2018-08-31T20:34:38.071Z,8.08
2018-08-31T20:37:49.904Z,7.22
2018-08-31T20:41:01.133Z,7.60
2018-08-31T20:44:12.367Z,5.75
2018-08-31T20:47:23.549Z,6.83
2018-08-31T20:50:35.351Z,7.70
2018-08-31T20:53:46.809Z,6.85
2018-08-31T20:56:58.413Z,6.80
2018-08-31T21:00:09.600Z,7.53
2018-08-31T21:03:21.449Z,7.55
2018-08-31T21:06:33.057Z,6.70
2018-08-31T21:09:44.384Z,6.53
2018-08-31T21:12:56.329Z,8.33
2018-08-31T21:16:08.238Z,8.10
2018-08-31T21:19:19.652Z,6.65
2018-08-31T21:22:31.323Z,8.75
2018-08-31T21:25:43.257Z,6.53
2018-08-31T21:28:54.475Z,6.37
2018-08-31T21:32:06.699Z,6.33
2018-08-31T21:35:18.644Z,6.78
2018-08-31T21:38:30.138Z,7.70
2018-08-31T21:41:41.554Z,11.55
2018-08-31T21:44:53.562Z,6.15
2018-08-31T21:48:06.293Z,7.83
2018-08-31T21:51:18.512Z,7.58
2018-08-31T21:54:30.629Z,7.75
2018-08-31T21:57:42.450Z,8.20
2018-08-31T22:00:58.229Z,9.15
2018-08-31T22:04:12.312Z,6.55
2018-08-31T22:07:23.827Z,8.70
2018-08-31T22:10:35.122Z,7.92
2018-08-31T22:13:47.018Z,9.85
2018-08-31T22:17:00.515Z,10.80
2018-08-31T22:20:11.627Z,8.48
2018-08-31T22:23:23.202Z,6.92
2018-08-31T22:26:35.024Z,6.75
2018-08-31T22:29:46.518Z,9.85
2018-08-31T22:32:59.729Z,7.67
2018-08-31T22:36:10.940Z,6.53
2018-08-31T22:39:22.017Z,7.00
2018-08-31T22:42:34.199Z,8.20
2018-08-31T22:45:45.388Z,7.72
2018-08-31T22:48:56.526Z,8.78
2018-08-31T22:52:07.679Z,8.10
2018-08-31T22:55:18.752Z,7.75
2018-08-31T22:58:29.913Z,7.70
2018-08-31T23:01:41.339Z,9.00
2018-08-31T23:04:52.741Z,7.62
2018-08-31T23:08:03.877Z,7.72
2018-08-31T23:11:15.772Z,6.67
2018-08-31T23:14:26.969Z,7.10
2018-08-31T23:17:38.064Z,7.70
2018-08-31T23:20:49.218Z,6.92
2018-08-31T23:24:01.671Z,7.28
2018-08-31T23:27:13.261Z,6.90
2018-08-31T23:30:24.700Z,7.22
2018-08-31T23:33:36.851Z,9.40
2018-08-31T23:36:48.739Z,6.47
2018-08-31T23:40:00.263Z,8.50
2018-08-31T23:43:11.238Z,7.10
2018-08-31T23:46:22.502Z,7.65
2018-08-31T23:49:33.824Z,7.65
2018-08-31T23:52:45.604Z,7.72
2018-08-31T23:55:56.737Z,7.42
2018-08-31T23:59:08.812Z,7.95
